createdAt,value
2019-01-28T00:00:20.706Z,981.51
2019-01-28T00:01:20.714Z,981.48
2019-01-28T00:02:20.727Z,981.52
2019-01-28T00:03:20.744Z,981.51
2019-01-28T00:04:20.756Z,981.49
2019-01-28T00:05:20.773Z,981.56
2019-01-28T00:06:20.787Z,981.52
2019-01-28T00:07:20.799Z,981.52
2019-01-28T00:08:20.813Z,981.50
2019-01-28T00:09:20.830Z,981.42
2019-01-28T00:10:20.845Z,981.44
2019-01-28T00:11:20.857Z,981.47
2019-01-28T00:12:20.874Z,981.44
2019-01-28T00:13:20.888Z,981.41
2019-01-28T00:14:20.903Z,981.45
2019-01-28T00:15:20.915Z,981.43
2019-01-28T00:16:20.931Z,981.43
2019-01-28T00:17:20.943Z,981.44
2019-01-28T00:18:20.957Z,981.43
2019-01-28T00:19:20.972Z,981.46
2019-01-28T00:20:20.986Z,981.39
2019-01-28T00:21:21.003Z,981.39
2019-01-28T00:22:21.015Z,981.43
2019-01-28T00:23:21.029Z,981.40
2019-01-28T00:24:21.044Z,981.42
2019-01-28T00:25:21.060Z,981.42
2019-01-28T00:26:21.075Z,981.36
2019-01-28T00:27:21.089Z,981.38
2019-01-28T00:28:21.104Z,981.39
2019-01-28T00:29:21.119Z,981.36
2019-01-28T00:30:21.130Z,981.33
2019-01-28T00:31:21.144Z,981.34
2019-01-28T00:32:21.161Z,981.31
2019-01-28T00:33:21.177Z,981.35
2019-01-28T00:34:21.189Z,981.28
2019-01-28T00:35:21.205Z,981.34
2019-01-28T00:36:21.220Z,981.28
2019-01-28T00:37:21.234Z,981.33
2019-01-28T00:38:21.249Z,981.30
2019-01-28T00:39:21.262Z,981.29
2019-01-28T00:40:21.275Z,981.33
2019-01-28T00:41:21.292Z,981.28
2019-01-28T00:42:21.305Z,981.27
2019-01-28T00:43:21.322Z,981.34
2019-01-28T00:44:21.335Z,981.28
2019-01-28T00:45:21.346Z,981.33
2019-01-28T00:46:21.362Z,981.28
2019-01-28T00:47:21.375Z,981.31
2019-01-28T00:48:21.391Z,981.30
2019-01-28T00:49:21.406Z,981.29
2019-01-28T00:50:21.420Z,981.32
2019-01-28T00:51:21.433Z,981.28
2019-01-28T00:52:21.448Z,981.32
2019-01-28T00:53:21.467Z,981.22
2019-01-28T00:54:21.478Z,981.24
2019-01-28T00:55:21.493Z,981.25
2019-01-28T00:56:21.504Z,981.21
2019-01-28T00:57:21.522Z,981.29
2019-01-28T00:58:21.536Z,981.31
2019-01-28T00:59:21.550Z,981.22
2019-01-28T01:00:21.566Z,981.28
2019-01-28T01:01:21.579Z,981.22
2019-01-28T01:02:21.594Z,981.23
2019-01-28T01:03:21.609Z,981.27
2019-01-28T01:04:21.621Z,981.28
2019-01-28T01:05:21.636Z,981.31
2019-01-28T01:06:21.700Z,981.23
2019-01-28T01:07:21.667Z,981.30
2019-01-28T01:08:21.680Z,981.25
2019-01-28T01:09:21.692Z,981.30
2019-01-28T01:10:21.705Z,981.25
2019-01-28T01:11:21.732Z,981.25
2019-01-28T01:12:21.736Z,981.17
2019-01-28T01:13:21.749Z,981.21
2019-01-28T01:14:21.765Z,981.22
2019-01-28T01:15:21.780Z,981.21
2019-01-28T01:16:21.791Z,981.22
2019-01-28T01:17:21.806Z,981.20
2019-01-28T01:18:21.822Z,981.22
2019-01-28T01:19:21.838Z,981.17
2019-01-28T01:20:21.851Z,981.23
2019-01-28T01:21:21.864Z,981.20
2019-01-28T01:22:21.882Z,981.17
2019-01-28T01:23:21.892Z,981.20
2019-01-28T01:24:21.909Z,981.16
2019-01-28T01:25:21.921Z,981.16
2019-01-28T01:26:22.034Z,981.18
2019-01-28T01:27:21.952Z,981.18
2019-01-28T01:28:21.967Z,981.15
2019-01-28T01:29:21.980Z,981.20
2019-01-28T01:30:21.993Z,981.17
2019-01-28T01:31:22.007Z,981.20
2019-01-28T01:32:22.078Z,981.20
2019-01-28T01:33:22.043Z,981.15
2019-01-28T01:34:22.049Z,981.11
2019-01-28T01:35:22.063Z,981.19
2019-01-28T01:36:22.081Z,981.16
2019-01-28T01:37:22.095Z,981.09
2019-01-28T01:38:22.170Z,981.21
2019-01-28T01:39:22.125Z,981.16
2019-01-28T01:40:22.135Z,981.17
2019-01-28T01:41:22.151Z,981.10
2019-01-28T01:42:22.162Z,981.08
2019-01-28T01:43:22.180Z,981.08
2019-01-28T01:44:22.192Z,981.11
2019-01-28T01:45:22.210Z,981.11
2019-01-28T01:46:22.223Z,980.96
2019-01-28T01:47:22.234Z,981.02
2019-01-28T01:48:22.252Z,981.08
2019-01-28T01:49:22.264Z,981.01
2019-01-28T01:50:22.280Z,981.07
2019-01-28T01:51:22.294Z,981.04
2019-01-28T01:52:22.306Z,981.03
2019-01-28T01:53:22.323Z,981.09
2019-01-28T01:54:22.338Z,981.05
2019-01-28T01:55:22.350Z,981.01
2019-01-28T01:56:22.363Z,981.05
2019-01-28T01:57:22.378Z,980.98
2019-01-28T01:58:22.394Z,981.01
2019-01-28T01:59:22.409Z,980.95
2019-01-28T02:00:22.424Z,980.98
2019-01-28T02:01:22.436Z,981.02
2019-01-28T02:02:22.448Z,981.01
2019-01-28T02:03:22.462Z,980.91
2019-01-28T02:04:22.482Z,980.88
2019-01-28T02:05:22.491Z,980.94
2019-01-28T02:06:22.509Z,980.86
2019-01-28T02:07:22.523Z,980.89
2019-01-28T02:08:22.536Z,980.92
2019-01-28T02:09:22.551Z,980.91
2019-01-28T02:10:22.566Z,980.90
2019-01-28T02:11:22.579Z,980.85
2019-01-28T02:12:22.596Z,980.89
2019-01-28T02:13:22.609Z,980.83
2019-01-28T02:14:22.619Z,980.88
2019-01-28T02:15:22.636Z,980.71
2019-01-28T02:16:22.649Z,980.84
2019-01-28T02:17:22.665Z,980.80
2019-01-28T02:18:22.676Z,980.76
2019-01-28T02:19:22.693Z,980.81
2019-01-28T02:20:22.706Z,980.72
2019-01-28T02:21:22.720Z,980.73
2019-01-28T02:22:22.735Z,980.73
2019-01-28T02:23:22.751Z,980.63
2019-01-28T02:24:22.762Z,980.70
2019-01-28T02:25:22.780Z,980.74
2019-01-28T02:26:22.790Z,980.73
2019-01-28T02:27:22.814Z,980.74
2019-01-28T02:28:22.818Z,980.67
2019-01-28T02:29:22.833Z,980.66
2019-01-28T02:30:22.847Z,980.63
2019-01-28T02:31:22.863Z,980.65
2019-01-28T02:32:22.876Z,980.66
2019-01-28T02:33:22.890Z,980.68
2019-01-28T02:34:22.903Z,980.62
2019-01-28T02:35:22.920Z,980.62
2019-01-28T02:36:22.939Z,980.62
2019-01-28T02:37:22.951Z,980.62
2019-01-28T02:38:22.960Z,980.59
2019-01-28T02:39:22.980Z,980.58
2019-01-28T02:40:22.992Z,980.55
2019-01-28T02:41:23.006Z,980.56
2019-01-28T02:42:23.020Z,980.60
2019-01-28T02:43:23.034Z,980.58
2019-01-28T02:44:23.051Z,980.55
2019-01-28T02:45:23.067Z,980.57
2019-01-28T02:46:23.074Z,980.57
2019-01-28T02:47:23.093Z,980.52
2019-01-28T02:48:23.105Z,980.58
2019-01-28T02:49:23.120Z,980.53
2019-01-28T02:50:23.137Z,980.56
2019-01-28T02:51:23.146Z,980.60
2019-01-28T02:52:23.160Z,980.58
2019-01-28T02:53:23.176Z,980.51
2019-01-28T02:54:23.191Z,980.50
2019-01-28T02:55:23.204Z,980.49
2019-01-28T02:56:23.216Z,980.49
2019-01-28T02:57:23.230Z,980.44
2019-01-28T02:58:23.245Z,980.50
2019-01-28T02:59:23.256Z,980.43
2019-01-28T03:00:23.272Z,980.44
2019-01-28T03:01:23.288Z,980.41
2019-01-28T03:02:23.300Z,980.44
2019-01-28T03:03:23.312Z,980.47
2019-01-28T03:04:23.327Z,980.44
2019-01-28T03:05:23.345Z,980.42
2019-01-28T03:06:23.355Z,980.41
2019-01-28T03:07:23.368Z,980.39
2019-01-28T03:08:23.383Z,980.36
2019-01-28T03:09:23.395Z,980.38
2019-01-28T03:10:23.410Z,980.34
2019-01-28T03:11:23.425Z,980.32
2019-01-28T03:12:23.438Z,980.38
2019-01-28T03:13:23.455Z,980.32
2019-01-28T03:14:23.468Z,980.35
2019-01-28T03:15:23.479Z,980.25
2019-01-28T03:16:23.492Z,980.34
2019-01-28T03:17:23.509Z,980.29
2019-01-28T03:18:23.525Z,980.31
2019-01-28T03:19:23.533Z,980.30
2019-01-28T03:20:23.548Z,980.30
2019-01-28T03:21:23.564Z,980.27
2019-01-28T03:22:23.575Z,980.25
2019-01-28T03:23:23.592Z,980.30
2019-01-28T03:24:23.603Z,980.24
2019-01-28T03:25:23.621Z,980.22
2019-01-28T03:26:23.631Z,980.23
2019-01-28T03:27:23.646Z,980.23
2019-01-28T03:28:23.662Z,980.22
2019-01-28T03:29:23.673Z,980.23
2019-01-28T03:30:23.694Z,980.22
2019-01-28T03:31:23.715Z,980.22
2019-01-28T03:32:23.727Z,980.24
2019-01-28T03:33:23.731Z,980.24
2019-01-28T03:34:23.743Z,980.23
2019-01-28T03:35:23.755Z,980.21
2019-01-28T03:36:23.772Z,980.22
2019-01-28T03:37:23.787Z,980.17
2019-01-28T03:38:23.798Z,980.16
2019-01-28T03:39:24.059Z,980.14
2019-01-28T03:40:23.823Z,980.17
2019-01-28T03:41:23.837Z,980.16
2019-01-28T03:42:23.853Z,980.16
2019-01-28T03:43:23.866Z,980.18
2019-01-28T03:44:23.881Z,980.15
2019-01-28T03:45:23.893Z,980.13
2019-01-28T03:46:23.909Z,980.13
2019-01-28T03:47:23.925Z,980.14
2019-01-28T03:48:23.935Z,980.12
2019-01-28T03:49:23.947Z,980.18
2019-01-28T03:50:23.961Z,980.18
2019-01-28T03:51:23.977Z,980.13
2019-01-28T03:52:23.991Z,980.11
2019-01-28T03:53:24.003Z,980.17
2019-01-28T03:54:24.023Z,980.17
2019-01-28T03:55:24.031Z,980.11
2019-01-28T03:56:24.043Z,980.14
2019-01-28T03:57:24.058Z,980.17
2019-01-28T03:58:24.071Z,980.12
2019-01-28T03:59:24.084Z,980.11
2019-01-28T04:00:24.098Z,980.13
2019-01-28T04:01:24.118Z,980.12
2019-01-28T04:02:24.125Z,980.09
2019-01-28T04:03:24.139Z,980.08
2019-01-28T04:04:24.153Z,980.14
2019-01-28T04:05:24.172Z,980.09
2019-01-28T04:06:24.181Z,980.10
2019-01-28T04:07:24.195Z,980.12
2019-01-28T04:08:24.208Z,980.11
2019-01-28T04:09:24.224Z,980.11
2019-01-28T04:10:24.237Z,980.11
2019-01-28T04:11:24.249Z,980.10
2019-01-28T04:12:24.265Z,980.10
2019-01-28T04:13:24.277Z,980.10
2019-01-28T04:14:24.291Z,980.03
2019-01-28T04:15:24.304Z,980.06
2019-01-28T04:16:24.319Z,980.04
2019-01-28T04:17:24.335Z,980.07
2019-01-28T04:18:24.347Z,980.09
2019-01-28T04:19:24.360Z,980.07
2019-01-28T04:20:24.374Z,980.03
2019-01-28T04:21:24.389Z,980.05
2019-01-28T04:22:24.402Z,980.00
2019-01-28T04:23:24.418Z,980.02
2019-01-28T04:24:24.431Z,979.99
2019-01-28T04:25:24.442Z,980.03
2019-01-28T04:26:24.459Z,980.02
2019-01-28T04:27:24.471Z,980.07
2019-01-28T04:28:24.483Z,980.04
2019-01-28T04:29:24.500Z,980.04
2019-01-28T04:30:24.514Z,980.03
2019-01-28T04:31:24.524Z,980.07
2019-01-28T04:32:24.537Z,980.03
2019-01-28T04:33:24.555Z,980.00
2019-01-28T04:34:24.571Z,980.06
2019-01-28T04:35:24.630Z,980.08
2019-01-28T04:36:24.594Z,980.01
2019-01-28T04:37:24.610Z,979.98
2019-01-28T04:38:24.620Z,980.07
2019-01-28T04:39:24.635Z,979.99
2019-01-28T04:40:24.655Z,979.97
2019-01-28T04:41:24.661Z,980.03
2019-01-28T04:42:24.679Z,979.99
2019-01-28T04:43:24.692Z,979.99
2019-01-28T04:44:24.706Z,980.00
2019-01-28T04:45:24.718Z,980.01
2019-01-28T04:46:24.732Z,979.97
2019-01-28T04:47:24.743Z,980.01
2019-01-28T04:48:24.760Z,979.98
2019-01-28T04:49:24.775Z,979.99
2019-01-28T04:50:24.787Z,979.98
2019-01-28T04:51:24.801Z,980.02
2019-01-28T04:52:24.814Z,979.99
2019-01-28T04:53:24.825Z,980.00
2019-01-28T04:54:24.841Z,979.98
2019-01-28T04:55:24.854Z,979.96
2019-01-28T04:56:24.869Z,979.96
2019-01-28T04:57:24.883Z,979.95
2019-01-28T04:58:24.896Z,980.01
2019-01-28T04:59:24.911Z,979.94
2019-01-28T05:00:24.922Z,980.03
2019-01-28T05:01:24.935Z,980.02
2019-01-28T05:02:24.951Z,980.00
2019-01-28T05:03:24.964Z,980.03
2019-01-28T05:04:24.975Z,980.07
2019-01-28T05:05:24.989Z,980.01
2019-01-28T05:06:25.005Z,979.99
2019-01-28T05:07:25.020Z,980.00
2019-01-28T05:08:25.031Z,980.03
2019-01-28T05:09:25.066Z,980.00
2019-01-28T05:10:25.059Z,979.99
2019-01-28T05:11:25.073Z,979.94
2019-01-28T05:12:25.087Z,979.99
2019-01-28T05:13:25.101Z,979.96
2019-01-28T05:14:25.114Z,979.98
2019-01-28T05:15:25.125Z,979.98
2019-01-28T05:16:25.139Z,979.93
2019-01-28T05:17:25.153Z,979.97
2019-01-28T05:18:25.166Z,979.89
2019-01-28T05:19:25.180Z,979.92
2019-01-28T05:20:25.195Z,979.90
2019-01-28T05:21:25.207Z,979.91
2019-01-28T05:22:25.222Z,979.95
2019-01-28T05:23:25.234Z,979.95
2019-01-28T05:24:25.349Z,979.97
2019-01-28T05:25:25.263Z,979.95
2019-01-28T05:26:25.560Z,979.94
2019-01-28T05:27:25.290Z,979.92
2019-01-28T05:28:25.507Z,979.96
2019-01-28T05:29:25.317Z,979.96
2019-01-28T05:30:25.330Z,980.00
2019-01-28T05:31:25.347Z,979.94
2019-01-28T05:32:25.358Z,979.98
2019-01-28T05:33:25.371Z,979.98
2019-01-28T05:34:25.388Z,979.94
2019-01-28T05:35:25.402Z,979.96
2019-01-28T05:36:25.415Z,979.91
2019-01-28T05:37:25.427Z,979.95
2019-01-28T05:38:25.439Z,979.97
2019-01-28T05:39:25.456Z,979.93
2019-01-28T05:40:25.469Z,979.89
2019-01-28T05:41:25.481Z,979.92
2019-01-28T05:42:25.497Z,979.87
2019-01-28T05:43:25.508Z,979.89
2019-01-28T05:44:25.580Z,979.88
2019-01-28T05:45:25.538Z,979.84
2019-01-28T05:46:25.551Z,979.88
2019-01-28T05:47:25.565Z,979.89
2019-01-28T05:48:25.578Z,979.87
2019-01-28T05:49:25.594Z,979.87
2019-01-28T05:50:25.604Z,979.88
2019-01-28T05:51:25.620Z,979.85
2019-01-28T05:52:25.634Z,979.79
2019-01-28T05:53:25.648Z,979.87
2019-01-28T05:54:25.661Z,979.90
2019-01-28T05:55:25.674Z,979.96
2019-01-28T05:56:25.687Z,979.95
2019-01-28T05:57:25.701Z,979.99
2019-01-28T05:58:25.715Z,979.92
2019-01-28T05:59:25.730Z,979.90
2019-01-28T06:00:25.744Z,979.93
2019-01-28T06:01:25.758Z,979.93
2019-01-28T06:02:25.773Z,979.96
2019-01-28T06:03:25.786Z,979.92
2019-01-28T06:04:25.798Z,979.92
2019-01-28T06:05:25.815Z,979.89
2019-01-28T06:06:25.827Z,979.92
2019-01-28T06:07:25.845Z,979.91
2019-01-28T06:08:25.853Z,979.90
2019-01-28T06:09:25.868Z,979.95
2019-01-28T06:10:25.879Z,979.92
2019-01-28T06:11:26.047Z,979.93
2019-01-28T06:12:25.908Z,979.94
2019-01-28T06:13:25.921Z,979.95
2019-01-28T06:14:25.937Z,979.98
2019-01-28T06:15:25.952Z,979.93
2019-01-28T06:16:25.965Z,979.98
2019-01-28T06:17:25.977Z,980.00
2019-01-28T06:18:26.039Z,980.00
2019-01-28T06:19:26.004Z,979.99
2019-01-28T06:20:26.020Z,980.00
2019-01-28T06:21:26.034Z,980.03
2019-01-28T06:22:26.045Z,979.99
2019-01-28T06:23:26.063Z,979.97
2019-01-28T06:24:26.077Z,980.03
2019-01-28T06:25:26.088Z,979.96
2019-01-28T06:26:26.104Z,979.96
2019-01-28T06:27:26.122Z,979.98
2019-01-28T06:28:26.130Z,979.98
2019-01-28T06:29:26.144Z,979.99
2019-01-28T06:30:26.156Z,980.02
2019-01-28T06:31:26.172Z,980.05
2019-01-28T06:32:26.184Z,980.01
2019-01-28T06:33:26.198Z,980.04
2019-01-28T06:34:26.214Z,980.05
2019-01-28T06:35:26.228Z,980.05
2019-01-28T06:36:26.239Z,980.03
2019-01-28T06:37:26.253Z,980.05
2019-01-28T06:38:26.266Z,980.08
2019-01-28T06:39:26.283Z,980.10
2019-01-28T06:40:26.295Z,980.08
2019-01-28T06:41:26.311Z,980.08
2019-01-28T06:42:26.324Z,980.08
2019-01-28T06:43:26.337Z,980.06
2019-01-28T06:44:26.352Z,980.07
2019-01-28T06:45:26.367Z,980.05
2019-01-28T06:46:26.380Z,980.05
2019-01-28T06:47:26.391Z,980.09
2019-01-28T06:48:26.406Z,980.08
2019-01-28T06:49:26.420Z,980.09
2019-01-28T06:50:26.436Z,980.08
2019-01-28T06:51:26.449Z,980.09
2019-01-28T06:52:26.467Z,980.06
2019-01-28T06:53:26.478Z,980.12
2019-01-28T06:54:26.491Z,980.05
2019-01-28T06:55:26.503Z,980.08
2019-01-28T06:56:26.517Z,980.08
2019-01-28T06:57:26.535Z,980.07
2019-01-28T06:58:26.545Z,980.10
2019-01-28T06:59:26.561Z,980.14
2019-01-28T07:00:26.577Z,980.10
2019-01-28T07:01:26.587Z,980.07
2019-01-28T07:02:26.601Z,980.16
2019-01-28T07:03:26.618Z,980.18
2019-01-28T07:04:26.631Z,980.15
2019-01-28T07:05:26.748Z,980.20
2019-01-28T07:06:26.659Z,980.22
2019-01-28T07:07:26.671Z,980.22
2019-01-28T07:08:26.690Z,980.18
2019-01-28T07:09:26.702Z,980.20
2019-01-28T07:10:26.718Z,980.15
2019-01-28T07:11:26.730Z,980.16
2019-01-28T07:12:26.744Z,980.15
2019-01-28T07:13:26.756Z,980.19
2019-01-28T07:14:26.773Z,980.20
2019-01-28T07:15:26.787Z,980.21
2019-01-28T07:16:26.800Z,980.24
2019-01-28T07:17:26.812Z,980.26
2019-01-28T07:18:26.828Z,980.21
2019-01-28T07:19:29.227Z,980.29
2019-01-28T07:20:26.856Z,980.24
2019-01-28T07:21:26.868Z,980.36
2019-01-28T07:22:26.882Z,980.31
2019-01-28T07:23:26.896Z,980.32
2019-01-28T07:24:26.913Z,980.30
2019-01-28T07:25:26.925Z,980.29
2019-01-28T07:26:26.941Z,980.35
2019-01-28T07:27:26.953Z,980.39
2019-01-28T07:28:26.967Z,980.39
2019-01-28T07:29:26.981Z,980.42
2019-01-28T07:30:27.000Z,980.35
2019-01-28T07:31:27.011Z,980.39
2019-01-28T07:32:27.023Z,980.45
2019-01-28T07:33:27.040Z,980.45
2019-01-28T07:34:27.054Z,980.46
2019-01-28T07:35:27.067Z,980.45
2019-01-28T07:36:27.084Z,980.49
2019-01-28T07:37:27.094Z,980.52
2019-01-28T07:38:27.109Z,980.56
2019-01-28T07:39:27.124Z,980.58
2019-01-28T07:40:27.136Z,980.58
2019-01-28T07:41:27.153Z,980.60
2019-01-28T07:42:27.165Z,980.63
2019-01-28T07:43:27.186Z,980.60
2019-01-28T07:44:27.195Z,980.59
2019-01-28T07:45:27.208Z,980.66
2019-01-28T07:46:27.223Z,980.67
2019-01-28T07:47:27.235Z,980.74
2019-01-28T07:48:27.249Z,980.74
2019-01-28T07:49:27.267Z,980.75
2019-01-28T07:50:27.282Z,980.74
2019-01-28T07:51:27.294Z,980.68
2019-01-28T07:52:27.308Z,980.73
2019-01-28T07:53:27.324Z,980.76
2019-01-28T07:54:27.335Z,980.73
2019-01-28T07:55:27.349Z,980.74
2019-01-28T07:56:27.363Z,980.73
2019-01-28T07:57:27.378Z,980.75
2019-01-28T07:58:27.391Z,980.77
2019-01-28T07:59:27.409Z,980.78
2019-01-28T08:00:27.421Z,980.79
2019-01-28T08:01:27.435Z,980.80
2019-01-28T08:02:27.449Z,980.85
2019-01-28T08:03:27.466Z,980.82
2019-01-28T08:04:27.481Z,980.83
2019-01-28T08:05:27.492Z,980.89
2019-01-28T08:06:27.506Z,980.88
2019-01-28T08:07:27.520Z,980.83
2019-01-28T08:08:27.586Z,980.85
2019-01-28T08:09:27.550Z,980.89
2019-01-28T08:10:27.613Z,980.88
2019-01-28T08:11:27.582Z,980.91
2019-01-28T08:12:27.594Z,980.90
2019-01-28T08:13:27.609Z,980.90
2019-01-28T08:14:27.621Z,980.92
2019-01-28T08:15:27.635Z,980.93
2019-01-28T08:16:27.650Z,980.92
2019-01-28T08:17:27.665Z,980.97
2019-01-28T08:18:27.709Z,980.99
2019-01-28T08:19:27.693Z,980.98
2019-01-28T08:20:27.710Z,980.98
2019-01-28T08:21:27.726Z,980.96
2019-01-28T08:22:27.736Z,981.01
2019-01-28T08:23:27.753Z,981.04
2019-01-28T08:24:27.768Z,981.08
2019-01-28T08:25:27.780Z,981.08
2019-01-28T08:26:27.797Z,981.09
2019-01-28T08:27:27.811Z,981.11
2019-01-28T08:28:27.952Z,981.10
2019-01-28T08:29:27.840Z,981.12
2019-01-28T08:30:27.855Z,981.12
2019-01-28T08:31:27.869Z,981.15
2019-01-28T08:32:27.880Z,981.10
2019-01-28T08:33:27.899Z,981.16
2019-01-28T08:34:27.909Z,981.12
2019-01-28T08:35:27.923Z,981.18
2019-01-28T08:36:27.938Z,981.20
2019-01-28T08:37:28.007Z,981.17
2019-01-28T08:38:27.972Z,981.18
2019-01-28T08:39:27.991Z,981.15
2019-01-28T08:40:27.998Z,981.20
2019-01-28T08:41:28.011Z,981.23
2019-01-28T08:42:28.028Z,981.25
2019-01-28T08:43:28.040Z,981.23
2019-01-28T08:44:28.057Z,981.29
2019-01-28T08:45:28.072Z,981.25
2019-01-28T08:46:30.255Z,981.24
2019-01-28T08:47:28.099Z,981.31
2019-01-28T08:48:28.114Z,981.31
2019-01-28T08:49:28.131Z,981.34
2019-01-28T08:50:28.142Z,981.39
2019-01-28T08:51:28.156Z,981.35
2019-01-28T08:52:28.272Z,981.42
2019-01-28T08:53:28.188Z,981.45
2019-01-28T08:54:28.200Z,981.47
2019-01-28T08:55:28.218Z,981.45
2019-01-28T08:56:28.232Z,981.46
2019-01-28T08:57:28.248Z,981.47
2019-01-28T08:58:28.262Z,981.50
2019-01-28T08:59:28.280Z,981.52
2019-01-28T09:00:28.310Z,981.56
2019-01-28T09:01:28.303Z,981.55
2019-01-28T09:02:28.319Z,981.61
2019-01-28T09:03:28.337Z,981.61
2019-01-28T09:04:28.349Z,981.63
2019-01-28T09:05:28.364Z,981.69
2019-01-28T09:06:28.378Z,981.73
2019-01-28T09:07:28.391Z,981.71
2019-01-28T09:08:28.404Z,981.74
2019-01-28T09:09:28.421Z,981.75
2019-01-28T09:10:28.432Z,981.80
2019-01-28T09:11:28.451Z,981.85
2019-01-28T09:12:28.470Z,981.82
2019-01-28T09:13:28.479Z,981.80
2019-01-28T09:14:28.493Z,981.82
2019-01-28T09:15:28.505Z,981.82
2019-01-28T09:16:28.522Z,981.93
2019-01-28T09:17:28.535Z,981.97
2019-01-28T09:18:28.551Z,982.01
2019-01-28T09:19:28.563Z,981.96
2019-01-28T09:20:28.580Z,982.03
2019-01-28T09:21:28.594Z,982.06
2019-01-28T09:22:28.609Z,982.07
2019-01-28T09:23:28.623Z,982.09
2019-01-28T09:24:28.637Z,982.10
2019-01-28T09:25:28.651Z,982.16
2019-01-28T09:26:28.666Z,982.22
2019-01-28T09:27:28.681Z,982.19
2019-01-28T09:28:28.696Z,982.23
2019-01-28T09:29:28.713Z,982.26
2019-01-28T09:30:28.722Z,982.28
2019-01-28T09:31:28.737Z,982.35
2019-01-28T09:32:28.752Z,982.43
2019-01-28T09:33:28.769Z,982.39
2019-01-28T09:34:28.780Z,982.47
2019-01-28T09:35:28.794Z,982.48
2019-01-28T09:36:28.809Z,982.50
2019-01-28T09:37:28.826Z,982.50
2019-01-28T09:38:28.842Z,982.48
2019-01-28T09:39:28.853Z,982.51
2019-01-28T09:40:28.868Z,982.52
2019-01-28T09:41:28.884Z,982.55
2019-01-28T09:42:28.896Z,982.61
2019-01-28T09:43:28.911Z,982.62
2019-01-28T09:44:28.929Z,982.66
2019-01-28T09:45:28.938Z,982.67
2019-01-28T09:46:28.957Z,982.69
2019-01-28T09:47:28.966Z,982.70
2019-01-28T09:48:34.119Z,982.76
2019-01-28T09:49:28.996Z,982.77
2019-01-28T09:50:29.009Z,982.82
2019-01-28T09:51:29.026Z,982.86
2019-01-28T09:52:29.039Z,982.87
2019-01-28T09:53:29.519Z,982.97
2019-01-28T09:54:29.069Z,982.97
2019-01-28T09:55:29.084Z,983.00
2019-01-28T09:56:29.096Z,983.02
2019-01-28T09:57:29.117Z,983.10
2019-01-28T09:58:29.128Z,983.07
2019-01-28T09:59:29.141Z,983.06
2019-01-28T10:00:29.157Z,983.09
2019-01-28T10:01:29.169Z,983.14
2019-01-28T10:02:29.182Z,983.12
2019-01-28T10:03:29.202Z,983.17
2019-01-28T10:04:29.214Z,983.13
2019-01-28T10:05:29.229Z,983.13
2019-01-28T10:06:29.242Z,983.17
2019-01-28T10:07:29.258Z,983.20
2019-01-28T10:08:29.273Z,983.27
2019-01-28T10:09:29.287Z,983.25
2019-01-28T10:10:29.300Z,983.28
2019-01-28T10:11:29.315Z,983.28
2019-01-28T10:12:29.330Z,983.29
2019-01-28T10:13:29.345Z,983.35
2019-01-28T10:14:29.361Z,983.35
2019-01-28T10:15:29.370Z,983.38
2019-01-28T10:16:29.387Z,983.41
2019-01-28T10:17:29.400Z,983.42
2019-01-28T10:18:29.414Z,983.46
2019-01-28T10:19:29.433Z,983.53
2019-01-28T10:20:29.452Z,983.56
2019-01-28T10:21:29.461Z,983.58
2019-01-28T10:22:29.472Z,983.56
2019-01-28T10:23:29.491Z,983.59
2019-01-28T10:24:29.505Z,983.61
2019-01-28T10:25:29.540Z,983.58
2019-01-28T10:26:29.530Z,983.67
2019-01-28T10:27:29.551Z,983.65
2019-01-28T10:28:29.559Z,983.63
2019-01-28T10:29:29.577Z,983.63
2019-01-28T10:30:29.588Z,983.72
2019-01-28T10:31:29.605Z,983.68
2019-01-28T10:32:35.955Z,983.72
2019-01-28T10:33:29.633Z,983.77
2019-01-28T10:34:29.649Z,983.73
2019-01-28T10:35:29.661Z,983.77
2019-01-28T10:36:34.148Z,983.81
2019-01-28T10:37:29.694Z,983.79
2019-01-28T10:38:29.704Z,983.80
2019-01-28T10:39:29.719Z,983.83
2019-01-28T10:40:29.734Z,983.84
2019-01-28T10:41:29.750Z,983.86
2019-01-28T10:42:29.763Z,983.90
2019-01-28T10:43:29.778Z,983.92
2019-01-28T10:44:29.796Z,983.94
2019-01-28T10:45:29.808Z,983.97
2019-01-28T10:46:29.821Z,983.99
2019-01-28T10:47:29.839Z,984.01
2019-01-28T10:48:29.852Z,984.07
2019-01-28T10:49:29.866Z,984.06
2019-01-28T10:50:29.883Z,984.06
2019-01-28T10:51:29.898Z,984.14
2019-01-28T10:52:29.910Z,984.15
2019-01-28T10:53:29.925Z,984.14
2019-01-28T10:54:29.938Z,984.19
2019-01-28T10:55:29.955Z,984.13
2019-01-28T10:56:29.971Z,984.19
2019-01-28T10:57:29.984Z,984.18
2019-01-28T10:58:30.000Z,984.14
2019-01-28T10:59:30.012Z,984.21
2019-01-28T11:00:30.029Z,984.21
2019-01-28T11:01:30.043Z,984.23
2019-01-28T11:02:30.058Z,984.23
2019-01-28T11:03:30.077Z,984.23
2019-01-28T11:04:30.086Z,984.28
2019-01-28T11:05:30.102Z,984.27
2019-01-28T11:06:30.115Z,984.27
2019-01-28T11:07:30.132Z,984.30
2019-01-28T11:08:30.145Z,984.28
2019-01-28T11:09:30.202Z,984.33
2019-01-28T11:10:30.283Z,984.38
2019-01-28T11:11:30.192Z,984.39
2019-01-28T11:12:30.226Z,984.36
2019-01-28T11:13:30.260Z,984.37
2019-01-28T11:14:30.262Z,984.40
2019-01-28T11:15:30.367Z,984.39
2019-01-28T11:16:30.353Z,984.43
2019-01-28T11:17:30.300Z,984.47
2019-01-28T11:18:30.377Z,984.43
2019-01-28T11:19:30.597Z,984.43
2019-01-28T11:20:30.439Z,984.50
2019-01-28T11:21:30.382Z,984.54
2019-01-28T11:22:30.356Z,984.54
2019-01-28T11:23:32.170Z,984.56
2019-01-28T11:24:30.454Z,984.58
2019-01-28T11:25:30.529Z,984.59
2019-01-28T11:26:30.425Z,984.59
2019-01-28T11:27:30.539Z,984.56
2019-01-28T11:28:30.462Z,984.60
2019-01-28T11:29:30.462Z,984.63
2019-01-28T11:30:30.509Z,984.76
2019-01-28T11:31:30.594Z,984.80
2019-01-28T11:32:30.506Z,984.73
2019-01-28T11:33:30.573Z,984.74
2019-01-28T11:34:30.551Z,984.71
2019-01-28T11:35:30.653Z,984.84
2019-01-28T11:36:30.596Z,984.84
2019-01-28T11:37:30.583Z,984.85
2019-01-28T11:38:30.702Z,984.89
2019-01-28T11:39:30.652Z,984.92
2019-01-28T11:40:30.729Z,984.93
2019-01-28T11:41:30.817Z,984.96
2019-01-28T11:42:30.763Z,984.93
2019-01-28T11:43:30.720Z,985.01
2019-01-28T11:44:30.684Z,985.01
2019-01-28T11:45:30.793Z,985.06
2019-01-28T11:46:30.715Z,985.04
2019-01-28T11:47:30.727Z,985.06
2019-01-28T11:48:32.680Z,985.07
2019-01-28T11:49:30.756Z,985.10
2019-01-28T11:50:30.779Z,985.09
2019-01-28T11:51:30.786Z,985.11
2019-01-28T11:52:30.804Z,985.15
2019-01-28T11:53:30.821Z,985.22
2019-01-28T11:54:30.831Z,985.24
2019-01-28T11:55:30.845Z,985.22
2019-01-28T11:56:30.862Z,985.24
2019-01-28T11:57:30.876Z,985.21
2019-01-28T11:58:30.890Z,985.20
2019-01-28T11:59:30.904Z,985.24
2019-01-28T12:00:30.915Z,985.24
2019-01-28T12:01:30.934Z,985.28
2019-01-28T12:02:34.376Z,985.30
2019-01-28T12:03:30.962Z,985.26
2019-01-28T12:04:30.976Z,985.32
2019-01-28T12:05:30.992Z,985.31
2019-01-28T12:06:31.006Z,985.32
2019-01-28T12:07:31.017Z,985.30
2019-01-28T12:08:31.033Z,985.32
2019-01-28T12:09:31.049Z,985.32
2019-01-28T12:10:31.063Z,985.38
2019-01-28T12:11:31.078Z,985.41
2019-01-28T12:12:31.089Z,985.50
2019-01-28T12:13:31.105Z,985.50
2019-01-28T12:14:31.123Z,985.48
2019-01-28T12:15:31.135Z,985.55
2019-01-28T12:16:31.146Z,985.55
2019-01-28T12:17:31.212Z,985.60
2019-01-28T12:18:31.173Z,985.57
2019-01-28T12:19:31.191Z,985.72
2019-01-28T12:20:31.205Z,985.69
2019-01-28T12:21:31.223Z,985.69
2019-01-28T12:22:31.229Z,985.70
2019-01-28T12:23:34.563Z,985.65
2019-01-28T12:24:31.261Z,985.76
2019-01-28T12:25:31.275Z,985.69
2019-01-28T12:26:31.286Z,985.72
2019-01-28T12:27:31.300Z,985.76
2019-01-28T12:28:31.316Z,985.81